Time;durP1;ratioP1;P1;durP2;ratioP2;P2;SDS_P1;SDS_P2;PMS_P1;PMS_P2;Temp;Humidity;BMP_temperature;BMP_pressure;BME280_temperature;BME280_humidity;BME280_pressure;Samples;Min_cycle;Max_cycle;Signal;HPM_P1;HPM_P2
2020/12/12 00:02:16;;;;;;;14.00;10.87;;;6.20;99.90;;;;;;5079182;28;20174;-57
2020/12/12 00:04:42;;;;;;;11.37;9.67;;;6.10;99.90;;;;;;5093365;28;20916;-54
2020/12/12 00:07:08;;;;;;;11.93;10.60;;;6.10;99.90;;;;;;5098996;28;20443;-54
2020/12/12 00:09:34;;;;;;;12.60;11.23;;;6.00;99.90;;;;;;5099898;28;20938;-56
2020/12/12 00:12:00;;;;;;;13.90;12.40;;;6.10;99.90;;;;;;5099448;28;20540;-56
2020/12/12 00:14:26;;;;;;;13.23;9.93;;;6.20;99.90;;;;;;5088016;28;20445;-54
2020/12/12 00:16:52;;;;;;;10.83;9.67;;;6.20;99.90;;;;;;5078989;28;20427;-56
2020/12/12 00:19:18;;;;;;;11.23;9.80;;;6.30;99.90;;;;;;5078989;28;20192;-55
2020/12/12 00:21:55;;;;;;;11.13;9.83;;;6.30;99.90;;;;;;5078636;28;20492;-52
2020/12/12 00:24:21;;;;;;;12.13;10.30;;;6.20;99.90;;;;;;5079889;28;20419;-52
2020/12/12 00:26:47;;;;;;;13.07;11.47;;;6.10;99.90;;;;;;5079960;28;20426;-54
2020/12/12 00:29:14;;;;;;;12.20;10.60;;;6.10;99.90;;;;;;5079475;28;20907;-56
2020/12/12 00:31:41;;;;;;;14.57;10.33;;;6.10;99.90;;;;;;5078247;28;20432;-57
2020/12/12 00:34:07;;;;;;;12.23;10.93;;;6.10;99.90;;;;;;5079456;28;20807;-54
2020/12/12 00:36:41;;;;;;;14.10;12.33;;;6.20;99.90;;;;;;5079435;28;20420;-57
2020/12/12 00:39:07;;;;;;;12.30;10.47;;;6.20;99.90;;;;;;5079517;28;20427;-57
2020/12/12 00:41:37;;;;;;;14.53;11.70;;;6.10;99.90;;;;;;5078478;28;20400;-54
2020/12/12 00:44:04;;;;;;;12.63;11.00;;;6.10;99.90;;;;;;5078320;28;20819;-55
2020/12/12 00:46:29;;;;;;;11.93;10.40;;;6.20;99.90;;;;;;5077665;28;20435;-53
2020/12/12 00:48:55;;;;;;;13.27;11.43;;;6.30;99.90;;;;;;5091884;28;20407;-53
2020/12/12 00:51:21;;;;;;;15.23;11.13;;;6.20;99.90;;;;;;5098390;28;20197;-54
2020/12/12 00:53:47;;;;;;;11.90;10.70;;;6.30;99.90;;;;;;5078585;28;20463;-53
2020/12/12 00:56:14;;;;;;;11.53;10.33;;;6.30;99.90;;;;;;5078612;28;20529;-54
2020/12/12 00:58:40;;;;;;;14.10;11.63;;;6.30;99.90;;;;;;5077874;28;20638;-52
2020/12/12 01:01:06;;;;;;;11.90;10.67;;;6.40;99.90;;;;;;5078416;28;20473;-53
2020/12/12 01:03:31;;;;;;;12.07;10.07;;;6.40;99.90;;;;;;5082062;28;20200;-53
2020/12/12 01:05:57;;;;;;;14.43;12.93;;;6.40;99.90;;;;;;5098287;28;20227;-54
2020/12/12 01:08:22;;;;;;;12.80;11.43;;;6.40;99.90;;;;;;5091482;28;20198;-52
2020/12/12 01:10:48;;;;;;;16.10;13.83;;;6.20;99.90;;;;;;5077594;28;20677;-57
2020/12/12 01:13:14;;;;;;;13.40;11.50;;;6.20;99.90;;;;;;5078372;28;20253;-52
2020/12/12 01:15:40;;;;;;;13.33;11.53;;;6.20;99.90;;;;;;5076733;28;20158;-54
2020/12/12 01:18:06;;;;;;;15.33;12.13;;;6.20;99.90;;;;;;5076989;28;20977;-53
2020/12/12 01:20:31;;;;;;;17.40;13.90;;;6.30;99.90;;;;;;5077880;28;20219;-53
2020/12/12 01:22:57;;;;;;;14.50;11.93;;;6.30;99.90;;;;;;5077741;28;20174;-52
2020/12/12 01:25:22;;;;;;;13.50;11.47;;;6.40;99.90;;;;;;5077474;28;20189;-53
2020/12/12 01:27:50;;;;;;;13.80;12.30;;;6.40;99.90;;;;;;5077471;28;20186;-53
2020/12/12 01:30:15;;;;;;;12.43;10.93;;;6.50;99.90;;;;;;5077407;28;20196;-55
2020/12/12 01:32:41;;;;;;;13.17;11.13;;;6.60;99.90;;;;;;5077699;28;20728;-54
2020/12/12 01:35:07;;;;;;;12.23;10.70;;;6.60;99.90;;;;;;5077692;28;20190;-56
2020/12/12 01:37:32;;;;;;;12.40;10.43;;;6.60;99.90;;;;;;5077419;28;20273;-54
2020/12/12 01:39:58;;;;;;;13.40;11.87;;;6.60;99.90;;;;;;5075760;28;20646;-54
2020/12/12 01:42:24;;;;;;;11.60;9.53;;;6.70;99.90;;;;;;5077947;28;20233;-53
2020/12/12 01:44:58;;;;;;;14.23;10.97;;;6.70;99.90;;;;;;5077351;28;20202;-56
2020/12/12 01:47:24;;;;;;;13.93;11.80;;;6.70;99.90;;;;;;5077739;28;20190;-53
2020/12/12 01:49:51;;;;;;;12.27;10.83;;;6.80;99.90;;;;;;5077286;28;20538;-53
2020/12/12 01:52:17;;;;;;;12.63;11.03;;;6.70;99.90;;;;;;5075952;28;20408;-57
2020/12/12 01:54:46;;;;;;;12.47;11.17;;;6.80;99.90;;;;;;5076788;28;20420;-53
2020/12/12 01:57:13;;;;;;;14.43;12.53;;;6.80;99.90;;;;;;5077592;28;20198;-54
2020/12/12 01:59:39;;;;;;;12.47;11.17;;;6.80;99.90;;;;;;5077561;28;20439;-55
2020/12/12 02:02:07;;;;;;;12.80;11.27;;;6.80;99.90;;;;;;5082906;28;20990;-53
2020/12/12 02:04:37;;;;;;;13.40;11.20;;;6.80;99.90;;;;;;5090115;28;20256;-54
2020/12/12 02:07:03;;;;;;;13.70;10.63;;;6.80;99.90;;;;;;5097170;28;20411;-53
2020/12/12 02:09:28;;;;;;;10.57;9.47;;;6.80;99.90;;;;;;5096988;28;20418;-56
2020/12/12 02:11:54;;;;;;;12.60;11.40;;;6.70;99.90;;;;;;5097027;28;20698;-53
2020/12/12 02:14:20;;;;;;;12.50;11.20;;;6.60;99.90;;;;;;5096936;28;20248;-57
2020/12/12 02:16:57;;;;;;;11.17;9.63;;;6.50;99.90;;;;;;5095914;28;20561;-56
2020/12/12 02:19:23;;;;;;;11.30;9.40;;;6.50;99.90;;;;;;5097312;28;20652;-55
2020/12/12 02:21:55;;;;;;;12.13;10.83;;;6.50;99.90;;;;;;5096789;28;20418;-56
2020/12/12 02:24:21;;;;;;;10.17;9.20;;;6.60;99.90;;;;;;5079898;28;20417;-56
2020/12/12 02:26:47;;;;;;;11.77;10.17;;;6.60;99.90;;;;;;5076609;28;20440;-54
2020/12/12 02:29:13;;;;;;;14.93;11.80;;;6.50;99.90;;;;;;5076794;28;20404;-55
2020/12/12 02:31:39;;;;;;;13.60;11.00;;;6.50;99.90;;;;;;5077026;28;20216;-57
2020/12/12 02:34:06;;;;;;;13.90;10.80;;;6.40;99.90;;;;;;5076979;28;20170;-55
2020/12/12 02:36:43;;;;;;;14.23;11.83;;;6.30;99.90;;;;;;5076942;28;20459;-57
2020/12/12 02:39:10;;;;;;;13.90;11.27;;;6.40;99.90;;;;;;5076436;28;20385;-57
2020/12/12 02:41:36;;;;;;;13.53;11.33;;;6.40;99.90;;;;;;5077789;28;20411;-57
2020/12/12 02:44:02;;;;;;;13.47;10.30;;;6.40;99.90;;;;;;5076878;28;20412;-56
2020/12/12 02:46:27;;;;;;;11.27;9.60;;;6.40;99.90;;;;;;5077079;28;20202;-56
2020/12/12 02:48:53;;;;;;;13.10;11.50;;;6.40;99.90;;;;;;5084387;28;20188;-56
2020/12/12 02:51:19;;;;;;;13.70;10.37;;;6.40;99.90;;;;;;5097682;28;20254;-57
2020/12/12 02:53:45;;;;;;;13.93;11.70;;;6.40;99.90;;;;;;5084308;28;20338;-54
2020/12/12 02:56:15;;;;;;;15.10;12.57;;;6.40;99.90;;;;;;5079615;28;20176;-57
2020/12/12 02:58:41;;;;;;;11.70;10.27;;;6.30;99.90;;;;;;5097996;28;20439;-53
2020/12/12 03:01:07;;;;;;;15.60;12.33;;;6.30;99.90;;;;;;5098402;28;20412;-54
2020/12/12 03:03:33;;;;;;;11.63;9.70;;;6.30;99.90;;;;;;5097651;28;20495;-56
2020/12/12 03:05:59;;;;;;;12.63;11.30;;;6.40;99.90;;;;;;5102564;28;20174;-53
2020/12/12 03:08:25;;;;;;;14.00;11.30;;;6.40;99.90;;;;;;5101347;28;20292;-55
2020/12/12 03:10:50;;;;;;;13.20;11.37;;;6.30;99.90;;;;;;5101296;28;20893;-57
2020/12/12 03:13:16;;;;;;;16.20;11.57;;;6.20;99.90;;;;;;5098929;28;20157;-56
2020/12/12 03:15:42;;;;;;;13.40;11.50;;;6.10;99.90;;;;;;5079538;28;20257;-55
2020/12/12 03:18:07;;;;;;;11.60;10.30;;;6.10;99.90;;;;;;5080743;28;20190;-52
2020/12/12 03:20:33;;;;;;;14.30;11.93;;;6.00;99.90;;;;;;5080467;28;20563;-52
2020/12/12 03:22:58;;;;;;;13.70;10.80;;;5.90;99.90;;;;;;5080342;28;20252;-54
2020/12/12 03:25:24;;;;;;;16.27;12.93;;;5.90;99.90;;;;;;5078673;28;20523;-52
2020/12/12 03:27:50;;;;;;;12.47;9.70;;;6.00;99.90;;;;;;5079574;28;20225;-55
2020/12/12 03:30:15;;;;;;;12.23;10.90;;;6.00;99.90;;;;;;5078036;28;20197;-52
2020/12/12 03:32:41;;;;;;;15.47;11.30;;;6.10;99.90;;;;;;5080313;28;20208;-54
2020/12/12 03:35:06;;;;;;;13.80;12.03;;;6.20;99.90;;;;;;5079974;28;20174;-53
2020/12/12 03:37:32;;;;;;;14.53;11.03;;;6.20;99.90;;;;;;5079869;28;20186;-52
2020/12/12 03:39:58;;;;;;;11.70;9.60;;;6.10;99.90;;;;;;5079836;28;20249;-53
2020/12/12 03:42:23;;;;;;;11.90;10.50;;;6.20;99.90;;;;;;5080163;28;20184;-56
2020/12/12 03:44:49;;;;;;;12.73;10.80;;;6.20;99.90;;;;;;5079740;28;20545;-54
2020/12/12 03:47:15;;;;;;;11.47;10.27;;;6.20;99.90;;;;;;5079490;28;20188;-55
2020/12/12 03:49:40;;;;;;;11.70;10.43;;;6.30;99.90;;;;;;5080024;28;20202;-54
2020/12/12 03:52:06;;;;;;;16.47;12.20;;;6.30;99.90;;;;;;5079327;28;20159;-56
2020/12/12 03:54:31;;;;;;;11.33;9.10;;;6.20;99.90;;;;;;5079601;28;20180;-55
2020/12/12 03:56:58;;;;;;;11.20;9.17;;;6.30;99.90;;;;;;5090224;28;20188;-53
2020/12/12 03:59:23;;;;;;;10.47;9.30;;;6.30;99.90;;;;;;5100857;28;20162;-57
2020/12/12 04:01:49;;;;;;;11.67;9.90;;;6.40;99.90;;;;;;5100539;28;20878;-53
2020/12/12 04:04:15;;;;;;;12.03;10.00;;;6.40;99.90;;;;;;5100178;28;20672;-54
2020/12/12 04:06:41;;;;;;;10.63;9.10;;;6.40;99.90;;;;;;5100291;28;20181;-53
2020/12/12 04:09:07;;;;;;;11.33;9.17;;;6.40;99.90;;;;;;5099525;28;20173;-54
2020/12/12 04:11:32;;;;;;;12.53;10.10;;;6.30;99.90;;;;;;5099620;28;20461;-53
2020/12/12 04:13:58;;;;;;;11.33;9.03;;;6.40;99.90;;;;;;5091953;28;20185;-56
2020/12/12 04:16:24;;;;;;;8.97;8.07;;;6.40;99.90;;;;;;5081666;28;20182;-56
2020/12/12 04:18:49;;;;;;;10.33;9.30;;;6.40;99.90;;;;;;5090563;28;20226;-57
2020/12/12 04:21:15;;;;;;;10.57;8.53;;;6.50;99.90;;;;;;5089431;28;20162;-57
2020/12/12 04:23:44;;;;;;;9.60;8.60;;;6.50;99.90;;;;;;5087957;28;20256;-57
2020/12/12 04:26:11;;;;;;;10.67;9.00;;;6.50;99.90;;;;;;5086323;28;20173;-57
2020/12/12 04:28:37;;;;;;;11.53;10.37;;;6.40;99.90;;;;;;5080670;28;20415;-55
2020/12/12 04:31:03;;;;;;;10.87;9.27;;;6.40;99.90;;;;;;5079727;28;20819;-52
2020/12/12 04:33:28;;;;;;;10.90;9.80;;;6.40;99.90;;;;;;5081198;28;20438;-54
2020/12/12 04:35:54;;;;;;;10.23;9.20;;;6.50;99.90;;;;;;5089802;28;20182;-56
2020/12/12 04:38:20;;;;;;;9.53;8.33;;;6.60;99.90;;;;;;5096143;28;20332;-56
2020/12/12 04:40:47;;;;;;;10.43;9.33;;;6.60;99.90;;;;;;5095669;28;20174;-56
2020/12/12 04:43:12;;;;;;;10.63;8.70;;;6.60;99.90;;;;;;5089745;28;20447;-56
2020/12/12 04:45:42;;;;;;;9.83;8.73;;;6.70;99.90;;;;;;5088739;28;20435;-55
2020/12/12 04:48:08;;;;;;;8.83;7.20;;;6.70;99.90;;;;;;5085954;28;20249;-56
2020/12/12 04:50:33;;;;;;;9.23;7.93;;;6.50;99.90;;;;;;5089036;28;20881;-52
2020/12/12 04:53:12;;;;;;;7.07;6.30;;;6.50;99.90;;;;;;5099983;28;20956;-54
2020/12/12 04:55:52;;;;;;;8.37;7.57;;;6.60;99.90;;;;;;5085608;28;20170;-56
2020/12/12 04:58:20;;;;;;;9.20;7.43;;;6.70;99.90;;;;;;5098453;28;20476;-55
2020/12/12 05:00:47;;;;;;;9.97;7.47;;;6.70;99.90;;;;;;5100095;28;20407;-52
2020/12/12 05:03:15;;;;;;;8.63;7.23;;;6.70;99.90;;;;;;5100495;28;20415;-52
2020/12/12 05:05:41;;;;;;;8.90;7.80;;;6.70;99.90;;;;;;5098882;28;20422;-53
2020/12/12 05:08:08;;;;;;;8.07;7.20;;;6.80;99.90;;;;;;5099354;28;20427;-52
2020/12/12 05:10:37;;;;;;;8.20;7.00;;;6.80;99.90;;;;;;5100853;28;20191;-52
2020/12/12 05:13:22;;;;;;;8.70;7.80;;;6.90;99.90;;;;;;5098405;28;20500;-52
2020/12/12 05:15:49;;;;;;;8.30;6.97;;;6.80;99.90;;;;;;5079279;28;20403;-55
2020/12/12 05:18:15;;;;;;;7.40;6.60;;;6.80;99.90;;;;;;5079292;28;20424;-56
2020/12/12 05:20:41;;;;;;;7.23;6.50;;;6.90;99.90;;;;;;5078507;28;20438;-56
2020/12/12 05:23:14;;;;;;;8.13;7.33;;;6.80;99.90;;;;;;5078959;28;20465;-55
2020/12/12 05:25:41;;;;;;;7.27;6.57;;;6.80;99.90;;;;;;5078586;28;20458;-53
2020/12/12 05:28:07;;;;;;;7.90;7.10;;;6.90;99.90;;;;;;5077770;28;21368;-53
2020/12/12 05:30:34;;;;;;;8.00;7.20;;;6.90;99.90;;;;;;5078221;28;20460;-52
2020/12/12 05:33:00;;;;;;;6.83;6.23;;;7.00;99.90;;;;;;5079121;28;20469;-53
2020/12/12 05:35:26;;;;;;;6.70;6.00;;;7.00;99.90;;;;;;5079233;28;20491;-52
2020/12/12 05:37:53;;;;;;;6.67;5.77;;;6.90;99.90;;;;;;5078900;28;20420;-52
2020/12/12 05:40:19;;;;;;;6.80;6.07;;;6.90;99.90;;;;;;5079035;28;20178;-52
2020/12/12 05:42:48;;;;;;;5.50;5.00;;;7.00;99.90;;;;;;5078548;28;20439;-53
2020/12/12 05:45:14;;;;;;;6.60;5.90;;;7.10;99.90;;;;;;5078518;28;20253;-53
2020/12/12 05:47:40;;;;;;;6.67;6.07;;;7.10;99.90;;;;;;5078787;28;20485;-53
2020/12/12 05:50:06;;;;;;;6.87;5.53;;;7.10;99.90;;;;;;5091471;28;20447;-54
2020/12/12 05:52:32;;;;;;;7.67;6.87;;;7.10;99.90;;;;;;5098334;28;20218;-54
2020/12/12 05:54:58;;;;;;;6.20;5.60;;;7.20;99.90;;;;;;5079070;28;20823;-56
2020/12/12 05:57:26;;;;;;;5.13;4.70;;;6.90;99.90;;;;;;5077901;28;20420;-56
2020/12/12 05:59:52;;;;;;;5.53;5.03;;;7.00;99.90;;;;;;5078423;28;20465;-54
2020/12/12 06:02:23;;;;;;;6.00;5.20;;;7.10;99.90;;;;;;5078051;28;20404;-52
2020/12/12 06:04:51;;;;;;;5.73;5.20;;;7.20;99.90;;;;;;5078254;28;20166;-57
2020/12/12 06:07:30;;;;;;;5.10;4.60;;;7.30;99.90;;;;;;5078690;28;20459;-56
2020/12/12 06:10:02;;;;;;;6.93;5.40;;;7.40;99.90;;;;;;5079327;28;20451;-53
2020/12/12 06:12:28;;;;;;;5.20;4.70;;;7.40;99.90;;;;;;5079250;28;20920;-56
2020/12/12 06:14:58;;;;;;;5.37;4.83;;;7.40;99.90;;;;;;5078638;28;20415;-56
2020/12/12 06:17:38;;;;;;;4.77;4.27;;;7.40;99.90;;;;;;5078463;28;20951;-57
2020/12/12 06:20:05;;;;;;;4.40;4.00;;;7.40;99.90;;;;;;5078349;28;20443;-55
2020/12/12 06:22:31;;;;;;;4.70;4.30;;;7.40;99.90;;;;;;5078636;28;20458;-52
2020/12/12 06:25:02;;;;;;;5.30;4.80;;;7.40;99.90;;;;;;5076631;28;20857;-52
2020/12/12 06:27:36;;;;;;;5.20;4.70;;;7.40;99.90;;;;;;5078093;28;20533;-56
2020/12/12 06:30:04;;;;;;;5.27;4.77;;;7.40;99.90;;;;;;5076819;28;20566;-53
2020/12/12 06:32:30;;;;;;;6.20;5.60;;;7.40;99.90;;;;;;5077860;28;20401;-54
2020/12/12 06:34:55;;;;;;;7.10;5.30;;;7.40;99.90;;;;;;5077797;28;20428;-52
2020/12/12 06:37:38;;;;;;;6.23;5.43;;;7.40;99.90;;;;;;5078589;28;20782;-54
2020/12/12 06:40:10;;;;;;;6.63;5.97;;;7.10;99.90;;;;;;5080213;28;20173;-52
2020/12/12 06:42:44;;;;;;;6.17;5.60;;;7.10;99.90;;;;;;5082644;28;20392;-57
2020/12/12 06:45:18;;;;;;;6.37;5.77;;;7.10;99.90;;;;;;5081631;28;20412;-56
2020/12/12 06:47:43;;;;;;;12.73;9.07;;;7.20;99.90;;;;;;5081650;28;20485;-53
2020/12/12 06:50:10;;;;;;;52.23;30.63;;;7.20;99.90;;;;;;5094446;28;20855;-55
2020/12/12 06:52:36;;;;;;;64.57;35.23;;;7.20;99.90;;;;;;5106699;28;20305;-55
2020/12/12 06:55:05;;;;;;;128.10;64.60;;;7.20;99.90;;;;;;5093473;28;20462;-53
2020/12/12 06:57:39;;;;;;;29.87;17.50;;;7.10;99.90;;;;;;5080743;28;20928;-55
2020/12/12 07:00:07;;;;;;;61.17;36.83;;;7.00;99.90;;;;;;5080969;28;20397;-56
2020/12/12 07:02:33;;;;;;;34.47;23.50;;;7.10;99.90;;;;;;5079391;28;20412;-55
2020/12/12 07:05:18;;;;;;;14.10;10.90;;;7.10;99.90;;;;;;5080020;28;20457;-52
2020/12/12 07:07:44;;;;;;;8.00;6.83;;;7.30;99.90;;;;;;5078921;28;20193;-53
2020/12/12 07:10:10;;;;;;;8.40;7.60;;;7.40;99.90;;;;;;5077663;28;20526;-56
2020/12/12 07:12:37;;;;;;;7.23;6.43;;;7.40;99.90;;;;;;5079881;28;20412;-52
2020/12/12 07:15:03;;;;;;;8.73;7.23;;;7.40;99.90;;;;;;5079263;28;20400;-53
2020/12/12 07:17:31;;;;;;;6.47;5.77;;;7.40;99.90;;;;;;5078627;28;20431;-53
2020/12/12 07:19:57;;;;;;;5.90;5.30;;;7.40;99.90;;;;;;5078880;28;20446;-55
2020/12/12 07:22:23;;;;;;;6.17;5.33;;;7.50;99.90;;;;;;5079244;28;20404;-52
2020/12/12 07:24:49;;;;;;;6.60;5.67;;;7.40;99.90;;;;;;5078562;28;20784;-55
2020/12/12 07:27:14;;;;;;;7.50;6.53;;;7.40;99.90;;;;;;5079311;28;20540;-55
2020/12/12 07:29:40;;;;;;;5.07;4.57;;;7.50;99.90;;;;;;5079038;28;20177;-55
2020/12/12 07:32:06;;;;;;;7.17;6.47;;;7.40;99.90;;;;;;5077251;28;20178;-52
2020/12/12 07:34:31;;;;;;;5.60;5.10;;;7.40;99.90;;;;;;5079083;28;20216;-52
2020/12/12 07:37:03;;;;;;;6.83;5.40;;;7.20;99.90;;;;;;5078685;28;20692;-52
2020/12/12 07:39:38;;;;;;;6.87;5.90;;;7.30;99.90;;;;;;5078649;28;20166;-55
2020/12/12 07:42:06;;;;;;;9.30;5.00;;;7.40;99.90;;;;;;5078931;28;20808;-55
2020/12/12 07:44:33;;;;;;;6.90;6.00;;;7.40;99.90;;;;;;5078720;28;20531;-51
2020/12/12 07:47:04;;;;;;;6.20;5.60;;;7.30;99.90;;;;;;5079194;28;20468;-53
2020/12/12 07:49:31;;;;;;;6.57;5.87;;;7.40;99.90;;;;;;5090012;28;20418;-52
2020/12/12 07:52:06;;;;;;;5.73;5.20;;;7.10;99.90;;;;;;5097788;28;20770;-54
2020/12/12 07:55:08;;;;;;;9.33;6.10;;;7.20;99.90;;;;;;5089751;28;20948;-52
2020/12/12 07:57:36;;;;;;;6.80;6.07;;;7.30;99.90;;;;;;5076820;28;20439;-53
2020/12/12 08:00:10;;;;;;;5.23;4.53;;;7.30;99.90;;;;;;5078685;28;20409;-57
2020/12/12 08:02:35;;;;;;;5.80;5.23;;;7.30;99.90;;;;;;5078583;28;20406;-55
2020/12/12 08:05:06;;;;;;;5.47;4.97;;;7.30;99.90;;;;;;5079160;28;20946;-52
2020/12/12 08:07:33;;;;;;;5.57;5.07;;;7.40;99.90;;;;;;5099151;28;20246;-53
2020/12/12 08:10:00;;;;;;;4.60;4.20;;;7.50;99.90;;;;;;5097837;28;20865;-53
2020/12/12 08:12:32;;;;;;;5.00;4.60;;;7.40;99.90;;;;;;5098885;28;20403;-55
2020/12/12 08:15:28;;;;;;;6.80;3.90;;;7.40;99.90;;;;;;5098795;28;20388;-53
2020/12/12 08:17:54;;;;;;;6.10;5.50;;;7.50;99.90;;;;;;5098573;28;20416;-55
2020/12/12 08:20:28;;;;;;;6.20;5.10;;;7.40;99.90;;;;;;5099033;28;20435;-55
2020/12/12 08:22:55;;;;;;;5.13;4.63;;;7.30;99.90;;;;;;5097454;28;20624;-54
2020/12/12 08:25:21;;;;;;;5.60;5.10;;;7.30;99.90;;;;;;5082684;28;20424;-52
2020/12/12 08:27:47;;;;;;;5.03;4.53;;;7.50;99.90;;;;;;5076796;28;20848;-52
2020/12/12 08:30:13;;;;;;;4.93;4.40;;;7.40;99.90;;;;;;5077249;28;20198;-55
2020/12/12 08:32:42;;;;;;;5.17;4.73;;;7.60;99.90;;;;;;5078555;28;20405;-53
2020/12/12 08:35:13;;;;;;;5.60;5.10;;;7.60;99.90;;;;;;5077436;28;20720;-54
2020/12/12 08:37:40;;;;;;;5.97;5.47;;;7.70;99.90;;;;;;5088617;28;20435;-56
2020/12/12 08:40:10;;;;;;;7.40;5.27;;;7.80;99.90;;;;;;5093095;28;20509;-54
2020/12/12 08:42:36;;;;;;;7.53;4.57;;;7.80;99.90;;;;;;5101369;28;20435;-55
2020/12/12 08:45:16;;;;;;;5.60;5.10;;;7.70;99.90;;;;;;5100895;28;20502;-53
2020/12/12 08:47:42;;;;;;;5.23;4.73;;;7.80;99.90;;;;;;5103944;28;20424;-51
2020/12/12 08:50:08;;;;;;;5.80;5.27;;;7.80;99.90;;;;;;5101531;28;20446;-57
2020/12/12 08:52:33;;;;;;;5.10;4.60;;;7.80;99.90;;;;;;5095329;28;20416;-56
2020/12/12 08:55:04;;;;;;;6.13;5.53;;;7.70;99.90;;;;;;5080676;28;20417;-58
2020/12/12 08:57:30;;;;;;;7.47;5.60;;;7.80;99.90;;;;;;5081371;28;20285;-54
2020/12/12 09:00:04;;;;;;;5.63;5.00;;;7.60;99.90;;;;;;5080972;28;20436;-57
2020/12/12 09:02:30;;;;;;;8.13;5.60;;;7.60;99.90;;;;;;5081729;28;20392;-55
2020/12/12 09:05:32;;;;;;;5.77;5.27;;;7.50;99.90;;;;;;5082022;28;20758;-57
2020/12/12 09:08:14;;;;;;;5.47;4.97;;;7.60;99.90;;;;;;5071402;28;20292;-54
2020/12/12 09:10:40;;;;;;;6.37;5.00;;;7.80;99.90;;;;;;5085559;28;20536;-58
2020/12/12 09:13:09;;;;;;;5.17;4.67;;;7.80;99.90;;;;;;5101011;28;20415;-57
2020/12/12 09:15:35;;;;;;;5.20;4.70;;;7.80;99.90;;;;;;5101956;28;20170;-53
2020/12/12 09:18:02;;;;;;;4.97;4.23;;;7.80;99.90;;;;;;5094240;28;20466;-58
2020/12/12 09:20:27;;;;;;;5.20;4.70;;;7.90;99.90;;;;;;5079655;28;20658;-54
2020/12/12 09:22:53;;;;;;;5.47;4.67;;;8.00;99.90;;;;;;5080624;28;20505;-52
2020/12/12 09:25:18;;;;;;;4.80;4.30;;;8.00;99.90;;;;;;5081281;28;20175;-54
2020/12/12 09:27:44;;;;;;;4.77;4.30;;;7.90;99.90;;;;;;5072888;28;20254;-55
2020/12/12 09:30:09;;;;;;;6.00;5.40;;;8.00;99.90;;;;;;5075635;28;20228;-54
2020/12/12 09:32:35;;;;;;;4.97;4.47;;;8.00;99.90;;;;;;5074936;28;20504;-57
2020/12/12 09:35:01;;;;;;;4.70;4.20;;;8.00;99.90;;;;;;5075185;28;20198;-59
2020/12/12 09:37:26;;;;;;;5.10;4.60;;;7.80;99.90;;;;;;5075033;28;20182;-58
2020/12/12 09:39:52;;;;;;;5.10;4.60;;;7.90;99.90;;;;;;5075789;28;20174;-58
2020/12/12 09:42:17;;;;;;;4.37;3.97;;;7.90;99.90;;;;;;5076575;28;20211;-59
2020/12/12 09:44:43;;;;;;;4.20;3.57;;;8.00;99.90;;;;;;5076722;28;20257;-59
2020/12/12 09:47:08;;;;;;;4.50;4.10;;;8.10;99.90;;;;;;5076685;28;20794;-55
2020/12/12 09:49:34;;;;;;;4.63;4.23;;;8.00;99.90;;;;;;5078496;28;20194;-57
2020/12/12 09:51:59;;;;;;;4.57;4.17;;;8.10;99.90;;;;;;5078077;28;20190;-58
2020/12/12 09:54:25;;;;;;;4.40;4.00;;;8.20;99.90;;;;;;5074692;28;20167;-55
2020/12/12 09:56:51;;;;;;;5.00;4.40;;;8.20;99.90;;;;;;5074792;28;20194;-56
2020/12/12 09:59:17;;;;;;;3.70;3.40;;;8.00;99.90;;;;;;5089942;28;20176;-54
2020/12/12 10:01:44;;;;;;;5.20;4.50;;;8.20;99.90;;;;;;5094101;28;20697;-56
2020/12/12 10:04:10;;;;;;;3.53;3.23;;;8.30;99.90;;;;;;5093757;28;20409;-59
2020/12/12 10:06:35;;;;;;;3.80;3.40;;;8.30;99.90;;;;;;5094089;28;20520;-59
2020/12/12 10:09:01;;;;;;;3.80;3.40;;;8.20;99.90;;;;;;5094617;28;20687;-58
2020/12/12 10:11:26;;;;;;;4.20;3.80;;;8.40;99.90;;;;;;5094129;28;20565;-57
2020/12/12 10:13:52;;;;;;;5.20;3.90;;;8.60;99.90;;;;;;5076872;28;20174;-59
2020/12/12 10:16:20;;;;;;;4.53;4.10;;;8.80;99.90;;;;;;5074059;28;20173;-57
2020/12/12 10:18:45;;;;;;;3.87;3.57;;;8.90;99.90;;;;;;5072955;28;20201;-59
2020/12/12 10:21:11;;;;;;;3.10;2.90;;;9.00;99.90;;;;;;5073985;28;20397;-59
2020/12/12 10:23:36;;;;;;;3.50;3.20;;;9.10;99.90;;;;;;5073388;28;20170;-56
2020/12/12 10:26:02;;;;;;;3.63;3.33;;;9.20;99.90;;;;;;5073990;28;20254;-59
2020/12/12 10:28:28;;;;;;;3.50;3.20;;;9.30;99.90;;;;;;5074158;28;20176;-58
2020/12/12 10:30:53;;;;;;;3.80;3.50;;;9.50;99.90;;;;;;5074125;28;20655;-57
2020/12/12 10:33:19;;;;;;;4.10;3.80;;;9.50;99.90;;;;;;5073187;28;20173;-59
2020/12/12 10:35:44;;;;;;;3.80;3.50;;;9.60;99.90;;;;;;5073808;28;20165;-58
2020/12/12 10:38:12;;;;;;;2.87;2.67;;;9.70;99.90;;;;;;5073208;28;20224;-56
2020/12/12 10:40:58;;;;;;;3.73;3.40;;;9.80;99.90;;;;;;5073254;28;20177;-59
2020/12/12 10:43:23;;;;;;;3.13;2.90;;;9.60;99.90;;;;;;5073476;28;20422;-58
2020/12/12 10:45:49;;;;;;;2.90;2.60;;;9.80;99.90;;;;;;5073628;28;20416;-58
2020/12/12 10:48:14;;;;;;;4.47;4.07;;;10.00;99.90;;;;;;5072772;28;20251;-59
2020/12/12 10:50:40;;;;;;;2.40;2.20;;;9.70;99.90;;;;;;5073548;28;20197;-59
2020/12/12 10:53:05;;;;;;;3.77;3.47;;;9.70;99.90;;;;;;5076466;28;20200;-59
2020/12/12 10:55:31;;;;;;;2.77;2.57;;;9.80;99.90;;;;;;5083608;28;20181;-59
2020/12/12 10:58:00;;;;;;;2.77;2.57;;;10.00;99.90;;;;;;5072940;28;20243;-59
2020/12/12 11:00:27;;;;;;;2.80;2.60;;;10.10;99.90;;;;;;5074302;28;20532;-59
2020/12/12 11:02:53;;;;;;;2.87;2.67;;;10.20;99.90;;;;;;5072873;28;20415;-57
2020/12/12 11:05:19;;;;;;;3.00;2.80;;;10.10;99.90;;;;;;5073392;28;20469;-59
2020/12/12 11:07:44;;;;;;;2.93;2.67;;;10.00;99.90;;;;;;5073397;28;20194;-54
2020/12/12 11:10:10;;;;;;;3.53;3.23;;;9.90;99.90;;;;;;5072601;28;20463;-54
2020/12/12 11:12:35;;;;;;;5.33;2.67;;;9.80;99.90;;;;;;5072977;28;20223;-54
2020/12/12 11:15:01;;;;;;;3.40;3.10;;;9.80;99.90;;;;;;5073100;28;20173;-53
2020/12/12 11:17:27;;;;;;;2.90;2.60;;;9.50;99.90;;;;;;5070511;28;20203;-55
2020/12/12 11:19:52;;;;;;;2.40;2.20;;;9.60;99.90;;;;;;5072417;28;20193;-56
2020/12/12 11:22:18;;;;;;;2.43;2.23;;;9.70;99.90;;;;;;5072935;28;20544;-58
2020/12/12 11:24:43;;;;;;;3.37;2.90;;;9.80;99.90;;;;;;5072735;28;20646;-55
2020/12/12 11:27:09;;;;;;;3.37;3.07;;;10.00;99.90;;;;;;5075610;28;20280;-54
2020/12/12 11:29:34;;;;;;;2.63;2.33;;;10.00;99.90;;;;;;5076986;28;20177;-58
2020/12/12 11:32:00;;;;;;;3.07;2.70;;;10.00;99.90;;;;;;5075053;28;20176;-58
2020/12/12 11:34:39;;;;;;;4.63;3.37;;;9.80;99.90;;;;;;5076390;28;20188;-55
2020/12/12 11:42:45;;;;;;;2.87;2.67;;;9.90;99.90;;;;;;5076732;28;20412;-59
2020/12/12 11:47:42;;;;;;;3.07;2.70;;;10.30;99.90;;;;;;5076101;28;20514;-59
2020/12/12 11:50:08;;;;;;;3.33;3.10;;;10.40;99.90;;;;;;5076394;28;20596;-54
2020/12/12 11:52:41;;;;;;;2.93;2.70;;;10.10;99.90;;;;;;5076509;28;20405;-55
2020/12/12 11:55:07;;;;;;;3.47;3.13;;;10.20;99.90;;;;;;5075292;28;20862;-55
2020/12/12 11:57:33;;;;;;;3.43;3.10;;;10.10;99.90;;;;;;5076330;28;20420;-56
2020/12/12 12:00:06;;;;;;;3.67;3.37;;;10.40;99.90;;;;;;5075612;28;20415;-54
2020/12/12 12:02:32;;;;;;;3.40;3.10;;;10.30;99.90;;;;;;5082257;28;20536;-56
2020/12/12 12:04:58;;;;;;;3.60;2.90;;;10.30;99.90;;;;;;5087943;28;20414;-53
2020/12/12 12:07:23;;;;;;;3.77;3.07;;;10.00;99.90;;;;;;5096230;28;20223;-57
2020/12/12 12:09:52;;;;;;;3.40;3.10;;;10.10;99.90;;;;;;5096496;28;20240;-58
2020/12/12 12:12:17;;;;;;;3.77;3.37;;;10.30;99.90;;;;;;5096914;28;20188;-58
2020/12/12 12:14:43;;;;;;;3.80;3.40;;;10.60;99.90;;;;;;5096251;28;21003;-53
2020/12/12 12:17:08;;;;;;;4.33;3.93;;;10.60;99.90;;;;;;5096539;28;20863;-58
2020/12/12 12:19:34;;;;;;;3.90;3.03;;;10.60;99.90;;;;;;5096735;28;20181;-55
2020/12/12 12:21:59;;;;;;;3.47;3.17;;;10.50;99.90;;;;;;5102986;28;20188;-59
2020/12/12 12:24:25;;;;;;;4.60;3.40;;;10.20;99.90;;;;;;5099402;28;20220;-57
2020/12/12 12:26:51;;;;;;;4.13;3.73;;;10.20;99.90;;;;;;5082610;28;20325;-58
2020/12/12 12:29:18;;;;;;;4.80;4.00;;;10.30;99.90;;;;;;5081702;28;20188;-56
2020/12/12 12:31:47;;;;;;;4.07;3.67;;;10.20;99.90;;;;;;5075969;28;20193;-59
2020/12/12 12:34:13;;;;;;;3.50;3.20;;;10.10;99.90;;;;;;5075729;28;20400;-58
2020/12/12 12:36:40;;;;;;;4.40;3.60;;;10.20;99.90;;;;;;5084062;28;20443;-59
2020/12/12 12:39:08;;;;;;;3.50;3.20;;;10.30;99.90;;;;;;5086457;28;20919;-59
2020/12/12 12:41:34;;;;;;;4.73;4.33;;;10.20;99.90;;;;;;5086443;28;20421;-57
2020/12/12 12:44:05;;;;;;;4.33;3.93;;;10.30;99.90;;;;;;5086280;28;20526;-57
2020/12/12 12:46:33;;;;;;;3.53;3.23;;;10.00;99.90;;;;;;5085930;28;20420;-59
2020/12/12 12:48:59;;;;;;;4.10;3.43;;;10.00;99.90;;;;;;5077115;28;20815;-59
2020/12/12 12:51:25;;;;;;;4.50;4.10;;;10.10;99.90;;;;;;5074750;28;20482;-57
2020/12/12 12:53:51;;;;;;;4.67;4.27;;;10.00;99.90;;;;;;5075505;28;20396;-58
2020/12/12 12:56:21;;;;;;;4.90;4.20;;;10.00;99.90;;;;;;5073951;28;20783;-57
2020/12/12 12:58:47;;;;;;;4.43;4.03;;;10.00;99.90;;;;;;5075184;28;20430;-55